createdAt,value
2023-02-04T00:00:20.028Z,102556.00
2023-02-04T00:02:47.992Z,102557.25
2023-02-04T00:05:18.091Z,102560.31
2023-02-04T00:07:47.469Z,102552.97
2023-02-04T00:10:15.671Z,102574.56
2023-02-04T00:12:43.719Z,102587.41
2023-02-04T00:15:11.836Z,102561.97
2023-02-04T00:17:39.709Z,102589.78
2023-02-04T00:20:08.406Z,102577.59
2023-02-04T00:22:36.406Z,102591.09
2023-02-04T00:25:06.014Z,102592.94
2023-02-04T00:27:34.091Z,102594.59
2023-02-04T00:30:02.041Z,102603.19
2023-02-04T00:32:29.888Z,102609.22
2023-02-04T00:34:57.806Z,102614.03
2023-02-04T00:37:26.124Z,102602.91
2023-02-04T00:39:53.950Z,102592.59
2023-02-04T00:42:23.286Z,102621.25
2023-02-04T00:44:51.179Z,102619.78
2023-02-04T00:47:19.063Z,102627.66
2023-02-04T00:49:46.990Z,102635.50
2023-02-04T00:52:15.042Z,102625.25
2023-02-04T00:54:43.209Z,102625.66
2023-02-04T00:57:11.193Z,102635.84
2023-02-04T00:59:40.395Z,102637.84
2023-02-04T01:02:08.408Z,102639.09
2023-02-04T01:04:36.455Z,102644.41
2023-02-04T01:07:04.304Z,102646.22
2023-02-04T01:09:32.226Z,102647.13
2023-02-04T01:12:00.221Z,102651.19
2023-02-04T01:14:28.089Z,102652.84
2023-02-04T01:16:57.392Z,102655.25
2023-02-04T01:19:25.328Z,102664.41
2023-02-04T01:21:53.209Z,102633.63
2023-02-04T01:24:21.082Z,102684.25
2023-02-04T01:26:48.991Z,102653.75
2023-02-04T01:29:16.804Z,102664.34
2023-02-04T01:31:44.922Z,102688.56
2023-02-04T01:34:14.278Z,102671.78
2023-02-04T01:36:42.139Z,102700.16
2023-02-04T01:39:10.147Z,102693.78
2023-02-04T01:41:38.331Z,102696.72
2023-02-04T01:44:06.742Z,102701.69
2023-02-04T01:46:37.483Z,102699.34
2023-02-04T01:49:06.435Z,102527.81
2023-02-04T01:51:37.192Z,102684.03
2023-02-04T01:54:05.430Z,102718.03
2023-02-04T01:56:33.522Z,102712.22
2023-02-04T01:59:01.533Z,102731.97
2023-02-04T02:01:39.038Z,102737.66
2023-02-04T02:04:06.993Z,102748.47
2023-02-04T02:06:37.152Z,102748.28
2023-02-04T02:09:05.337Z,102750.66
2023-02-04T02:11:33.952Z,102753.97
2023-02-04T02:14:02.483Z,102760.91
2023-02-04T02:16:30.609Z,102769.69
2023-02-04T02:19:00.013Z,102766.03
2023-02-04T02:21:36.249Z,102781.41
2023-02-04T02:24:26.819Z,102785.97
2023-02-04T02:26:55.786Z,102785.41
2023-02-04T02:29:24.926Z,102772.06
2023-02-04T02:31:53.399Z,102793.97
2023-02-04T02:34:21.415Z,102803.84
2023-02-04T02:36:49.467Z,102796.53
2023-02-04T02:39:19.220Z,102806.25
2023-02-04T02:41:47.385Z,102816.47
2023-02-04T02:44:18.412Z,102813.16
2023-02-04T02:46:46.857Z,102819.94
2023-02-04T02:49:17.188Z,102800.56
2023-02-04T02:51:45.668Z,102831.47
2023-02-04T02:54:24.317Z,102841.91
2023-02-04T02:56:52.868Z,102839.53
2023-02-04T02:59:21.392Z,102849.03
2023-02-04T03:01:52.118Z,102855.06
2023-02-04T03:04:21.659Z,102860.22
2023-02-04T03:06:50.637Z,102850.31
2023-02-04T03:09:18.770Z,102851.22
2023-02-04T03:11:48.361Z,102854.53
2023-02-04T03:14:16.481Z,102852.13
2023-02-04T03:16:45.318Z,102819.78
2023-02-04T03:19:13.840Z,102865.69
2023-02-04T03:21:42.582Z,102801.16
2023-02-04T03:24:10.815Z,102857.09
2023-02-04T03:26:39.329Z,102864.41
2023-02-04T03:29:10.418Z,102882.75
2023-02-04T03:31:39.032Z,102882.22
2023-02-04T03:34:07.452Z,102887.72
2023-02-04T03:36:36.594Z,102877.31
2023-02-04T03:39:05.017Z,102879.72
2023-02-04T03:41:32.975Z,102879.94
2023-02-04T03:44:00.796Z,102903.53
2023-02-04T03:46:30.134Z,102912.16
2023-02-04T03:48:58.094Z,102917.63
2023-02-04T03:51:26.150Z,102851.41
2023-02-04T03:53:54.112Z,102917.09
2023-02-04T03:56:22.255Z,102913.25
2023-02-04T03:58:50.063Z,102934.84
2023-02-04T04:01:18.074Z,102919.84
2023-02-04T04:03:47.480Z,102936.66
2023-02-04T04:06:15.379Z,102929.34
2023-02-04T04:08:43.361Z,102944.91
2023-02-04T04:11:11.363Z,102947.47
2023-02-04T04:13:39.394Z,102863.25
2023-02-04T04:16:09.221Z,102947.81
2023-02-04T04:18:37.282Z,102963.53
2023-02-04T04:21:06.876Z,102970.84
2023-02-04T04:23:35.279Z,102980.72
2023-02-04T04:26:03.186Z,102975.22
2023-02-04T04:28:31.075Z,102981.81
2023-02-04T04:30:59.139Z,102973.00
2023-02-04T04:33:27.095Z,102989.66
2023-02-04T04:35:54.867Z,102996.94
2023-02-04T04:38:24.343Z,102921.50
2023-02-04T04:40:52.331Z,102998.94
2023-02-04T04:43:21.017Z,103010.66
2023-02-04T04:45:49.048Z,102896.56
2023-02-04T04:48:17.084Z,103024.91
2023-02-04T04:50:44.899Z,103023.78
2023-02-04T04:53:12.837Z,103025.25
2023-02-04T04:55:42.298Z,102973.38
2023-02-04T04:58:10.276Z,103039.31
2023-02-04T05:00:38.224Z,103022.44
2023-02-04T05:03:06.257Z,103053.44
2023-02-04T05:05:34.180Z,103044.28
2023-02-04T05:08:02.153Z,103052.38
2023-02-04T05:10:30.588Z,103057.88
2023-02-04T05:12:59.978Z,103060.09
2023-02-04T05:15:27.919Z,102815.25
2023-02-04T05:17:55.925Z,103077.44
2023-02-04T05:20:23.710Z,103082.38
2023-02-04T05:22:51.734Z,103083.09
2023-02-04T05:25:19.648Z,103088.03
2023-02-04T05:27:47.533Z,103089.31
2023-02-04T05:30:17.520Z,103098.44
2023-02-04T05:32:45.464Z,103098.41
2023-02-04T05:35:13.268Z,103098.78
2023-02-04T05:37:41.181Z,103110.47
2023-02-04T05:40:10.130Z,103094.66
2023-02-04T05:42:37.974Z,103102.00
2023-02-04T05:45:06.520Z,103115.22
2023-02-04T05:47:35.810Z,103108.06
2023-02-04T05:50:03.663Z,103122.13
2023-02-04T05:52:31.599Z,103096.41
2023-02-04T05:54:59.549Z,103127.19
2023-02-04T05:57:27.410Z,103119.84
2023-02-04T05:59:55.378Z,103129.72
2023-02-04T06:02:23.274Z,103139.56
2023-02-04T06:04:52.899Z,103130.53
2023-02-04T06:07:20.973Z,103141.47
2023-02-04T06:09:48.844Z,103149.53
2023-02-04T06:12:16.759Z,103161.22
2023-02-04T06:14:44.694Z,103152.25
2023-02-04T06:17:12.596Z,103156.97
2023-02-04T06:19:40.407Z,103162.63
2023-02-04T06:22:09.826Z,103143.00
2023-02-04T06:24:37.671Z,103139.31
2023-02-04T06:27:05.525Z,103163.50
2023-02-04T06:29:33.942Z,103157.41
2023-02-04T06:32:01.857Z,103178.47
2023-02-04T06:34:32.833Z,103174.78
2023-02-04T06:37:00.943Z,103183.38
2023-02-04T06:39:30.455Z,103186.88
2023-02-04T06:41:58.518Z,103184.09
2023-02-04T06:44:26.536Z,103192.69
2023-02-04T06:46:54.363Z,103199.44
2023-02-04T06:49:22.213Z,103129.31
2023-02-04T06:51:50.783Z,103195.78
2023-02-04T06:54:19.020Z,103192.75
2023-02-04T06:56:48.262Z,103207.97
2023-02-04T06:59:16.315Z,103186.06
2023-02-04T07:01:44.207Z,103220.03
2023-02-04T07:04:12.304Z,103236.81
2023-02-04T07:06:40.285Z,103250.31
2023-02-04T07:09:08.154Z,103248.50
2023-02-04T07:11:36.004Z,103254.66
2023-02-04T07:14:05.567Z,103264.16
2023-02-04T07:16:33.470Z,103252.34
2023-02-04T07:19:01.306Z,103273.97
2023-02-04T07:21:29.458Z,103277.25
2023-02-04T07:23:57.291Z,103235.72
2023-02-04T07:26:25.201Z,103279.41
2023-02-04T07:28:53.487Z,103281.78
2023-02-04T07:31:22.788Z,103299.47
2023-02-04T07:33:50.717Z,103295.28
2023-02-04T07:36:18.802Z,103297.84
2023-02-04T07:38:46.651Z,103297.63
2023-02-04T07:41:14.479Z,103306.03
2023-02-04T07:43:42.795Z,103311.53
2023-02-04T07:46:10.643Z,103306.63
2023-02-04T07:48:39.886Z,103311.41
2023-02-04T07:51:08.386Z,103315.50
2023-02-04T07:53:36.202Z,103311.91
2023-02-04T07:56:04.117Z,103302.50
2023-02-04T07:58:32.379Z,103306.78
2023-02-04T08:01:01.321Z,103327.03
2023-02-04T08:03:29.456Z,103252.22
2023-02-04T08:05:58.838Z,103337.16
2023-02-04T08:08:27.026Z,103348.72
2023-02-04T08:10:54.872Z,103346.63
2023-02-04T08:13:22.916Z,103357.06
2023-02-04T08:15:50.783Z,103352.75
2023-02-04T08:18:18.621Z,103307.13
2023-02-04T08:20:46.648Z,103338.13
2023-02-04T08:23:15.818Z,103345.38
2023-02-04T08:25:45.550Z,103345.63
2023-02-04T08:28:13.681Z,103353.94
2023-02-04T08:30:41.659Z,103350.97
2023-02-04T08:33:09.492Z,103357.91
2023-02-04T08:35:37.400Z,103349.00
2023-02-04T08:38:05.346Z,103357.88
2023-02-04T08:40:34.743Z,103352.03
2023-02-04T08:43:02.896Z,103325.34
2023-02-04T08:45:30.812Z,103366.25
2023-02-04T08:47:59.034Z,103366.66
2023-02-04T08:50:28.931Z,103367.16
2023-02-04T08:52:56.802Z,103374.22
2023-02-04T08:55:24.640Z,103357.84
2023-02-04T08:57:54.150Z,103381.75
2023-02-04T09:00:22.509Z,103387.72
2023-02-04T09:02:50.335Z,103386.59
2023-02-04T09:05:18.498Z,103391.22
2023-02-04T09:07:46.496Z,103370.56
2023-02-04T09:10:14.342Z,103377.06
2023-02-04T09:12:42.901Z,103395.59
2023-02-04T09:15:12.848Z,103398.97
2023-02-04T09:17:42.344Z,103408.13
2023-02-04T09:20:12.446Z,103363.97
2023-02-04T09:22:40.313Z,103404.59
2023-02-04T09:25:09.284Z,103402.50
2023-02-04T09:27:37.411Z,103385.91
2023-02-04T09:30:05.815Z,103380.72
2023-02-04T09:32:35.004Z,103408.53
2023-02-04T09:35:03.143Z,103410.53
2023-02-04T09:37:31.003Z,103410.66
2023-02-04T09:39:58.834Z,103404.13
2023-02-04T09:42:28.000Z,103411.91
2023-02-04T09:44:56.025Z,103418.16
2023-02-04T09:47:26.463Z,103406.88
2023-02-04T09:49:56.280Z,103416.03
2023-02-04T09:52:24.778Z,103417.41
2023-02-04T09:54:52.628Z,103413.59
2023-02-04T09:57:22.049Z,103420.44
2023-02-04T09:59:52.827Z,103433.25
2023-02-04T10:02:25.743Z,103400.47
2023-02-04T10:04:58.931Z,103434.31
2023-02-04T10:07:28.048Z,103426.09
2023-02-04T10:09:56.737Z,103431.88
2023-02-04T10:12:24.624Z,103437.69
2023-02-04T10:14:53.212Z,103379.44
2023-02-04T10:17:23.495Z,103396.50
2023-02-04T10:19:51.577Z,103439.81
2023-02-04T10:22:23.887Z,103433.09
2023-02-04T10:24:51.766Z,103446.34
2023-02-04T10:27:19.786Z,103442.41
2023-02-04T10:29:57.477Z,103408.41
2023-02-04T10:32:30.404Z,103461.28
2023-02-04T10:35:00.212Z,103470.56
2023-02-04T10:37:30.690Z,103468.84
2023-02-04T10:39:58.771Z,103467.91
2023-02-04T10:42:28.542Z,103450.19
2023-02-04T10:44:56.894Z,103482.13
2023-02-04T10:47:27.260Z,103449.19
2023-02-04T10:49:57.355Z,103479.06
2023-02-04T10:52:31.145Z,103466.41
2023-02-04T10:54:59.637Z,103482.38
2023-02-04T10:57:30.363Z,103487.41
2023-02-04T11:00:02.717Z,103487.59
2023-02-04T11:02:43.459Z,103471.94
2023-02-04T11:05:17.239Z,103471.94
2023-02-04T11:07:46.498Z,103485.09
2023-02-04T11:10:19.684Z,103485.56
2023-02-04T11:12:59.932Z,103480.84
2023-02-04T11:15:50.395Z,103484.81
2023-02-04T11:18:31.153Z,103466.50
2023-02-04T11:21:00.615Z,103485.25
2023-02-04T11:23:36.281Z,103480.06
2023-02-04T11:26:09.170Z,103482.53
2023-02-04T11:28:46.936Z,103475.50
2023-02-04T11:31:27.789Z,103452.63
2023-02-04T11:34:10.661Z,103468.44
2023-02-04T11:36:52.701Z,103492.69
2023-02-04T11:39:20.735Z,103487.03
2023-02-04T11:41:50.128Z,103494.50
2023-02-04T11:44:19.730Z,103499.81
2023-02-04T11:46:54.632Z,103502.75
2023-02-04T11:49:24.770Z,103507.19
2023-02-04T11:51:53.140Z,103504.00
2023-02-04T11:54:21.470Z,103511.22
2023-02-04T11:56:54.447Z,103516.25
2023-02-04T11:59:22.532Z,103511.69
2023-02-04T12:01:50.350Z,103507.94
2023-02-04T12:04:25.203Z,103508.03
2023-02-04T12:07:01.559Z,103509.69
2023-02-04T12:09:31.255Z,103512.28
2023-02-04T12:12:02.352Z,103517.88
2023-02-04T12:14:32.667Z,103502.88
2023-02-04T12:17:00.966Z,103529.19
2023-02-04T12:19:29.348Z,103522.34
2023-02-04T12:21:57.492Z,103542.91
2023-02-04T12:24:25.298Z,103536.34
2023-02-04T12:26:53.143Z,103532.09
2023-02-04T12:29:22.533Z,103539.03
2023-02-04T12:31:50.478Z,103541.50
2023-02-04T12:34:18.384Z,103544.28
2023-02-04T12:36:46.525Z,103539.41
2023-02-04T12:39:14.316Z,103537.16
2023-02-04T12:41:42.128Z,103540.06
2023-02-04T12:44:10.171Z,103544.91
2023-02-04T12:46:40.073Z,103488.00
2023-02-04T12:49:09.650Z,103379.44
2023-02-04T12:51:37.903Z,103542.88
2023-02-04T12:54:05.881Z,103545.66
2023-02-04T12:56:33.830Z,103548.25
2023-02-04T12:59:01.809Z,103543.75
2023-02-04T13:01:29.664Z,103561.09
2023-02-04T13:03:59.233Z,103553.13
2023-02-04T13:06:27.359Z,103566.31
2023-02-04T13:08:55.192Z,103555.03
2023-02-04T13:11:23.173Z,103562.72
2023-02-04T13:13:51.320Z,103582.97
2023-02-04T13:16:19.494Z,103555.81
2023-02-04T13:18:47.398Z,103586.81
2023-02-04T13:21:17.704Z,103548.69
2023-02-04T13:23:45.505Z,103594.09
2023-02-04T13:26:13.319Z,103598.25
2023-02-04T13:28:41.421Z,103588.22
2023-02-04T13:31:09.423Z,103587.09
2023-02-04T13:33:37.374Z,103588.28
2023-02-04T13:36:06.404Z,103595.00
2023-02-04T13:38:36.001Z,103602.44
2023-02-04T13:41:03.981Z,103597.31
2023-02-04T13:43:31.957Z,103595.38
2023-02-04T13:46:00.274Z,103598.91
2023-02-04T13:48:28.152Z,103591.22
2023-02-04T13:50:56.287Z,103601.56
2023-02-04T13:53:24.772Z,103595.53
2023-02-04T13:55:53.935Z,103592.81
2023-02-04T13:58:21.967Z,103591.38
2023-02-04T14:00:49.802Z,103571.53
2023-02-04T14:03:17.744Z,103591.03
2023-02-04T14:05:45.732Z,103590.31
2023-02-04T14:08:13.541Z,103580.44
2023-02-04T14:10:41.372Z,103580.81
2023-02-04T14:13:11.322Z,103520.59
2023-02-04T14:15:41.560Z,103559.91
2023-02-04T14:18:09.978Z,103577.72
2023-02-04T14:20:37.974Z,103583.44
2023-02-04T14:23:07.212Z,103590.81
2023-02-04T14:25:35.282Z,103588.63
2023-02-04T14:28:04.177Z,103595.44
2023-02-04T14:30:34.262Z,103550.97
2023-02-04T14:33:02.594Z,103584.97
2023-02-04T14:35:30.699Z,103587.53
2023-02-04T14:37:58.869Z,103579.44
2023-02-04T14:40:26.901Z,103585.69
2023-02-04T14:42:54.927Z,103582.38
2023-02-04T14:45:22.794Z,103584.75
2023-02-04T14:47:55.380Z,103577.03
2023-02-04T14:50:27.110Z,103581.97
2023-02-04T14:52:56.989Z,103580.47
2023-02-04T14:55:24.841Z,103590.00
2023-02-04T14:57:52.922Z,103592.56
2023-02-04T15:00:21.963Z,103559.44
2023-02-04T15:02:51.204Z,103587.19
2023-02-04T15:05:19.179Z,103598.34
2023-02-04T15:07:47.188Z,103598.84
2023-02-04T15:10:16.360Z,103562.25
2023-02-04T15:12:44.358Z,103538.47
2023-02-04T15:15:12.657Z,103606.09
2023-02-04T15:17:40.518Z,103444.41
2023-02-04T15:20:12.498Z,103615.75
2023-02-04T15:22:40.622Z,103609.84
2023-02-04T15:25:08.469Z,103611.63
2023-02-04T15:27:36.302Z,103608.09
2023-02-04T15:30:04.944Z,103615.06
2023-02-04T15:32:32.917Z,103614.09
2023-02-04T15:35:00.767Z,103617.72
2023-02-04T15:37:30.211Z,103612.72
2023-02-04T15:39:58.057Z,103607.00
2023-02-04T15:42:25.982Z,103619.06
2023-02-04T15:44:54.270Z,103618.78
2023-02-04T15:47:22.099Z,103545.09
2023-02-04T15:49:49.931Z,103608.41
2023-02-04T15:52:24.622Z,103606.44
2023-02-04T15:54:54.517Z,103624.19
2023-02-04T15:57:22.708Z,103622.66
2023-02-04T15:59:50.539Z,103629.03
2023-02-04T16:02:18.481Z,103625.06
2023-02-04T16:04:48.084Z,103629.41
2023-02-04T16:07:15.923Z,103617.97
2023-02-04T16:09:44.378Z,103635.81
2023-02-04T16:12:13.713Z,103626.91
2023-02-04T16:14:41.534Z,103635.81
2023-02-04T16:17:09.763Z,103634.50
2023-02-04T16:19:37.670Z,103634.09
2023-02-04T16:22:06.325Z,103626.22
2023-02-04T16:24:34.394Z,103611.38
2023-02-04T16:27:02.458Z,103610.16
2023-02-04T16:29:31.655Z,103443.13
2023-02-04T16:31:59.704Z,103619.47
2023-02-04T16:34:28.314Z,103613.44
2023-02-04T16:36:56.294Z,103610.25
2023-02-04T16:39:24.535Z,103581.91
2023-02-04T16:41:53.001Z,103604.22
2023-02-04T16:44:20.824Z,103600.72
2023-02-04T16:46:50.856Z,103583.03
2023-02-04T16:49:18.894Z,103579.16
2023-02-04T16:51:46.732Z,103607.81
2023-02-04T16:54:14.558Z,103605.75
2023-02-04T16:56:42.464Z,103607.72
2023-02-04T16:59:10.334Z,103605.47
2023-02-04T17:01:38.228Z,103596.66
2023-02-04T17:04:07.660Z,103580.19
2023-02-04T17:06:35.901Z,103599.84
2023-02-04T17:09:03.783Z,103581.00
2023-02-04T17:11:32.490Z,103602.69
2023-02-04T17:14:01.762Z,103613.25
2023-02-04T17:16:30.705Z,103595.94
2023-02-04T17:18:58.970Z,103525.78
2023-02-04T17:21:29.578Z,103519.84
2023-02-04T17:24:00.356Z,103599.41
2023-02-04T17:26:28.304Z,103609.75
2023-02-04T17:28:56.193Z,103617.22
2023-02-04T17:31:24.090Z,103623.28
2023-02-04T17:33:51.983Z,103625.31
2023-02-04T17:36:19.787Z,103426.28
2023-02-04T17:38:49.159Z,103619.28
2023-02-04T17:41:17.616Z,103622.13
2023-02-04T17:43:45.479Z,103616.63
2023-02-04T17:46:13.459Z,103628.19
2023-02-04T17:48:41.575Z,103586.75
2023-02-04T17:51:09.894Z,103626.84
2023-02-04T17:53:40.339Z,103626.63
2023-02-04T17:56:11.968Z,103404.28
2023-02-04T17:58:40.549Z,103620.50
2023-02-04T18:01:12.569Z,103557.78
2023-02-04T18:03:42.643Z,103625.31
2023-02-04T18:06:20.216Z,103626.34
2023-02-04T18:08:48.374Z,103627.06
2023-02-04T18:11:20.590Z,103627.78
2023-02-04T18:13:49.697Z,103625.72
2023-02-04T18:16:28.468Z,103616.28
2023-02-04T18:18:58.017Z,103618.56
2023-02-04T18:21:27.425Z,103630.41
2023-02-04T18:24:03.790Z,103610.34
2023-02-04T18:26:34.485Z,103626.03
2023-02-04T18:29:17.947Z,103625.09
2023-02-04T18:31:51.612Z,103626.31
2023-02-04T18:34:24.389Z,103614.63
2023-02-04T18:36:53.000Z,103623.44
2023-02-04T18:39:22.508Z,103628.84
2023-02-04T18:41:52.867Z,103627.72
2023-02-04T18:44:31.420Z,103628.44
2023-02-04T18:47:00.904Z,103535.38
2023-02-04T18:49:30.051Z,103628.22
2023-02-04T18:51:59.652Z,103630.78
2023-02-04T18:54:36.393Z,103610.69
2023-02-04T18:57:35.209Z,103593.69
2023-02-04T19:00:32.563Z,103629.22
2023-02-04T19:03:06.242Z,103625.75
2023-02-04T19:05:36.627Z,103619.72
2023-02-04T19:08:24.595Z,103608.84
2023-02-04T19:10:53.869Z,103590.22
2023-02-04T19:13:26.057Z,103606.59
2023-02-04T19:15:58.772Z,103601.06
2023-02-04T19:18:29.546Z,103606.47
2023-02-04T19:21:09.830Z,103616.97
2023-02-04T19:23:38.944Z,103615.84
2023-02-04T19:26:26.258Z,103613.78
2023-02-04T19:28:55.825Z,103617.81
2023-02-04T19:31:24.172Z,103623.84
2023-02-04T19:33:53.564Z,103552.59
2023-02-04T19:36:33.958Z,103616.19
2023-02-04T19:39:03.914Z,103597.09
2023-02-04T19:41:38.472Z,103591.88
2023-02-04T19:44:33.855Z,103616.34
2023-02-04T19:47:24.104Z,103620.03
2023-02-04T19:49:52.210Z,103622.56
2023-02-04T19:52:31.202Z,103577.63
2023-02-04T19:55:23.903Z,103625.97
2023-02-04T19:57:54.222Z,103615.19
2023-02-04T20:00:38.229Z,103624.00
2023-02-04T20:03:16.120Z,103630.31
2023-02-04T20:05:44.421Z,103614.22
2023-02-04T20:08:43.881Z,103636.22
2023-02-04T20:11:45.273Z,103631.59
2023-02-04T20:14:28.926Z,103577.47
2023-02-04T20:17:00.274Z,103634.22
2023-02-04T20:19:34.752Z,103624.72
2023-02-04T20:22:31.081Z,103626.84
2023-02-04T20:25:09.311Z,103615.34
2023-02-04T20:27:39.247Z,103626.19
2023-02-04T20:30:24.636Z,103626.91
2023-02-04T20:32:56.634Z,103634.34
2023-02-04T20:35:55.925Z,103635.78
2023-02-04T20:38:23.922Z,103636.28
2023-02-04T20:40:51.815Z,103629.31
2023-02-04T20:43:24.273Z,103626.56
2023-02-04T20:45:56.189Z,103616.13
2023-02-04T20:48:32.776Z,103599.75
2023-02-04T20:51:03.922Z,103609.69
2023-02-04T20:53:40.121Z,103571.88
2023-02-04T20:56:23.612Z,103575.34
2023-02-04T20:58:52.832Z,103603.00
2023-02-04T21:01:26.465Z,103615.78
2023-02-04T21:03:57.949Z,103605.41
2023-02-04T21:06:28.272Z,103616.97
2023-02-04T21:08:57.574Z,103598.97
2023-02-04T21:11:26.336Z,103597.25
2023-02-04T21:13:55.555Z,103591.22
2023-02-04T21:16:23.478Z,103604.91
2023-02-04T21:18:51.655Z,103596.13
2023-02-04T21:21:24.509Z,103598.47
2023-02-04T21:23:52.533Z,103599.16
2023-02-04T21:26:20.566Z,103598.03
2023-02-04T21:28:48.452Z,103601.09
2023-02-04T21:31:16.523Z,103599.03
2023-02-04T21:33:44.559Z,103591.66
2023-02-04T21:36:12.503Z,103583.78
2023-02-04T21:38:41.831Z,103559.94
2023-02-04T21:41:09.727Z,103563.84
2023-02-04T21:43:37.541Z,103567.81
2023-02-04T21:46:05.781Z,103536.91
2023-02-04T21:48:33.730Z,103528.13
2023-02-04T21:51:01.574Z,103546.34
2023-02-04T21:53:29.550Z,103557.91
2023-02-04T21:56:00.822Z,103561.84
2023-02-04T21:58:28.640Z,103554.22
2023-02-04T22:00:59.025Z,103560.22
2023-02-04T22:03:26.918Z,103548.88
2023-02-04T22:05:55.118Z,103522.88
2023-02-04T22:08:23.461Z,103545.41
2023-02-04T22:10:57.157Z,103547.97
2023-02-04T22:13:26.636Z,103531.53
2023-02-04T22:15:54.548Z,103526.44
2023-02-04T22:18:22.436Z,103526.44
2023-02-04T22:20:50.574Z,103520.81
2023-02-04T22:23:18.380Z,103519.19
2023-02-04T22:25:46.167Z,103492.41
2023-02-04T22:28:14.399Z,103516.16
2023-02-04T22:30:43.695Z,103515.03
2023-02-04T22:33:14.090Z,103508.28
2023-02-04T22:35:42.307Z,103512.47
2023-02-04T22:38:10.149Z,103440.97
2023-02-04T22:40:38.011Z,103469.94
2023-02-04T22:43:06.037Z,103489.16
2023-02-04T22:45:34.112Z,103483.56
2023-02-04T22:48:03.566Z,103479.59
2023-02-04T22:50:31.674Z,103478.88
2023-02-04T22:52:59.491Z,103467.03
2023-02-04T22:55:27.390Z,103462.63
2023-02-04T22:57:55.612Z,103462.00
2023-02-04T23:00:23.830Z,103470.59
2023-02-04T23:02:51.703Z,103475.69
2023-02-04T23:05:21.090Z,103472.72
2023-02-04T23:07:48.968Z,103484.53
2023-02-04T23:10:16.938Z,103485.03
2023-02-04T23:12:45.026Z,103483.19
2023-02-04T23:15:13.477Z,103460.66
2023-02-04T23:17:41.348Z,103478.88
2023-02-04T23:20:09.811Z,103490.94
2023-02-04T23:22:39.134Z,103450.59
2023-02-04T23:25:07.773Z,103480.72
2023-02-04T23:27:35.820Z,103463.44
2023-02-04T23:30:05.801Z,103483.75
2023-02-04T23:32:34.332Z,103485.19
2023-02-04T23:35:02.166Z,103470.44
2023-02-04T23:37:30.094Z,103473.84
2023-02-04T23:39:59.421Z,103468.97
2023-02-04T23:42:27.456Z,103468.75
2023-02-04T23:44:55.293Z,103462.00
2023-02-04T23:47:23.307Z,103460.16
2023-02-04T23:49:51.243Z,103458.31
2023-02-04T23:52:19.098Z,103448.13
2023-02-04T23:54:46.983Z,103449.03
2023-02-04T23:57:16.272Z,103447.63
2023-02-04T23:59:44.081Z,103449.69
